createdAt,value
2023-04-17T00:01:56.745Z,99.90
2023-04-17T00:04:23.486Z,99.90
2023-04-17T00:06:53.649Z,99.90
2023-04-17T00:09:20.376Z,99.90
2023-04-17T00:11:46.976Z,99.90
2023-04-17T00:14:13.584Z,99.90
2023-04-17T00:16:40.700Z,99.90
2023-04-17T00:19:07.444Z,99.90
2023-04-17T00:21:34.123Z,99.90
2023-04-17T00:24:00.812Z,99.90
2023-04-17T00:26:27.354Z,99.90
2023-04-17T00:28:53.976Z,99.90
2023-04-17T00:31:20.801Z,99.90
2023-04-17T00:33:47.478Z,99.90
2023-04-17T00:36:15.420Z,99.90
2023-04-17T00:38:42.084Z,99.90
2023-04-17T00:41:08.804Z,99.90
2023-04-17T00:43:35.455Z,99.90
2023-04-17T00:46:02.112Z,99.90
2023-04-17T00:48:28.832Z,99.90
2023-04-17T00:50:55.543Z,99.90
2023-04-17T00:53:22.678Z,99.90
2023-04-17T00:55:50.266Z,99.90
2023-04-17T00:58:17.019Z,99.90
2023-04-17T01:00:44.418Z,99.90
2023-04-17T01:03:11.200Z,99.90
2023-04-17T01:05:38.368Z,99.90
2023-04-17T01:08:05.098Z,99.90
2023-04-17T01:10:31.627Z,99.90
2023-04-17T01:13:04.517Z,99.90
2023-04-17T01:15:31.187Z,99.90
2023-04-17T01:17:58.032Z,99.90
2023-04-17T01:20:31.146Z,99.90
2023-04-17T01:22:58.363Z,99.90
2023-04-17T01:25:25.387Z,99.90
2023-04-17T01:27:52.110Z,99.90
2023-04-17T01:30:18.953Z,99.90
2023-04-17T01:32:45.681Z,99.90
2023-04-17T01:35:12.342Z,99.90
2023-04-17T01:37:38.954Z,99.90
2023-04-17T01:40:07.043Z,99.90
2023-04-17T01:42:34.178Z,99.90
2023-04-17T01:45:00.817Z,99.90
2023-04-17T01:47:27.454Z,99.90
2023-04-17T01:49:54.089Z,99.90
2023-04-17T01:52:21.049Z,99.90
2023-04-17T01:54:47.563Z,99.90
2023-04-17T01:57:14.098Z,99.90
2023-04-17T01:59:40.736Z,99.90
2023-04-17T02:02:07.406Z,99.90
2023-04-17T02:04:34.060Z,99.90
2023-04-17T02:07:00.650Z,99.90
2023-04-17T02:09:28.730Z,99.90
2023-04-17T02:11:56.193Z,99.90
2023-04-17T02:14:22.818Z,99.90
2023-04-17T02:16:50.151Z,99.90
2023-04-17T02:19:16.752Z,99.90
2023-04-17T02:21:43.399Z,99.90
2023-04-17T02:24:10.237Z,99.90
2023-04-17T02:26:37.040Z,99.90
2023-04-17T02:29:03.696Z,99.90
2023-04-17T02:31:30.757Z,99.90
2023-04-17T02:33:57.364Z,99.90
2023-04-17T02:36:24.016Z,99.90
2023-04-17T02:38:50.580Z,99.90
2023-04-17T02:41:17.254Z,99.90
2023-04-17T02:43:43.788Z,99.90
2023-04-17T02:46:10.589Z,99.90
2023-04-17T02:48:37.185Z,99.90
2023-04-17T02:51:04.018Z,99.90
2023-04-17T02:53:30.648Z,99.90
2023-04-17T02:55:57.800Z,99.90
2023-04-17T02:58:24.439Z,99.90
2023-04-17T03:00:51.212Z,99.90
2023-04-17T03:03:17.948Z,99.90
2023-04-17T03:05:44.891Z,99.90
2023-04-17T03:08:11.664Z,99.90
2023-04-17T03:10:38.235Z,99.90
2023-04-17T03:13:04.827Z,99.90
2023-04-17T03:15:31.456Z,99.90
2023-04-17T03:17:58.095Z,99.90
2023-04-17T03:20:24.692Z,99.90
2023-04-17T03:22:51.343Z,99.90
2023-04-17T03:25:17.983Z,99.90
2023-04-17T03:27:44.697Z,99.90
2023-04-17T03:30:11.568Z,99.90
2023-04-17T03:32:38.310Z,99.90
2023-04-17T03:35:05.443Z,99.90
2023-04-17T03:37:32.297Z,99.90
2023-04-17T03:39:58.988Z,99.90
2023-04-17T03:42:26.635Z,99.90
2023-04-17T03:44:53.229Z,99.90
2023-04-17T03:47:19.861Z,99.90
2023-04-17T03:49:46.482Z,99.90
2023-04-17T03:52:13.127Z,99.90
2023-04-17T03:54:39.762Z,99.90
2023-04-17T03:57:08.856Z,99.90
2023-04-17T03:59:35.581Z,99.90
2023-04-17T04:02:02.292Z,99.90
2023-04-17T04:04:29.176Z,99.90
2023-04-17T04:06:58.010Z,99.90
2023-04-17T04:09:27.362Z,99.90
2023-04-17T04:11:54.014Z,99.90
2023-04-17T04:14:20.733Z,99.90
2023-04-17T04:16:47.362Z,99.90
2023-04-17T04:19:14.212Z,99.90
2023-04-17T04:21:42.210Z,99.90
2023-04-17T04:24:10.648Z,99.90
2023-04-17T04:26:40.930Z,99.90
2023-04-17T04:29:07.660Z,99.90
2023-04-17T04:31:35.607Z,99.90
2023-04-17T04:34:02.475Z,99.90
2023-04-17T04:36:30.269Z,99.90
2023-04-17T04:38:59.759Z,99.90
2023-04-17T04:41:26.774Z,99.90
2023-04-17T04:43:54.318Z,99.90
2023-04-17T04:46:20.985Z,99.90
2023-04-17T04:48:47.715Z,99.90
2023-04-17T04:51:14.302Z,99.90
2023-04-17T04:53:40.933Z,99.90
2023-04-17T04:56:07.807Z,99.90
2023-04-17T04:58:38.467Z,99.90
2023-04-17T05:01:05.299Z,99.90
2023-04-17T05:03:32.202Z,99.90
2023-04-17T05:05:58.953Z,99.90
2023-04-17T05:08:25.586Z,99.90
2023-04-17T05:10:52.374Z,99.90
2023-04-17T05:13:18.969Z,99.90
2023-04-17T05:15:48.721Z,99.90
2023-04-17T05:18:15.519Z,99.90
2023-04-17T05:20:42.148Z,99.90
2023-04-17T05:23:08.730Z,99.90
2023-04-17T05:25:35.467Z,99.90
2023-04-17T05:28:02.066Z,99.90
2023-04-17T05:30:28.746Z,99.90
2023-04-17T05:32:55.489Z,99.90
2023-04-17T05:35:22.303Z,99.90
2023-04-17T05:37:48.923Z,99.90
2023-04-17T05:40:15.782Z,99.90
2023-04-17T05:42:42.416Z,99.90
2023-04-17T05:45:12.556Z,99.90
2023-04-17T05:47:39.121Z,99.90
2023-04-17T05:50:06.664Z,99.90
2023-04-17T05:52:33.337Z,99.90
2023-04-17T05:55:00.274Z,99.90
2023-04-17T05:57:26.941Z,99.90
2023-04-17T05:59:53.553Z,99.90
2023-04-17T06:02:20.441Z,99.90
2023-04-17T06:04:47.191Z,99.90
2023-04-17T06:07:17.157Z,99.90
2023-04-17T06:09:43.756Z,99.90
2023-04-17T06:12:15.887Z,99.90
2023-04-17T06:14:43.074Z,99.90
2023-04-17T06:17:09.953Z,99.90
2023-04-17T06:19:36.719Z,99.90
2023-04-17T06:22:03.320Z,99.90
2023-04-17T06:24:29.913Z,99.90
2023-04-17T06:26:56.611Z,99.90
2023-04-17T06:29:23.334Z,99.90
2023-04-17T06:31:49.972Z,99.90
2023-04-17T06:34:16.724Z,99.90
2023-04-17T06:36:43.372Z,99.90
2023-04-17T06:39:10.206Z,99.90
2023-04-17T06:41:36.933Z,99.90
2023-04-17T06:44:03.677Z,99.90
2023-04-17T06:46:30.352Z,99.90
2023-04-17T06:48:59.525Z,99.90
2023-04-17T06:51:27.690Z,99.90
2023-04-17T06:53:54.339Z,99.90
2023-04-17T06:56:21.395Z,99.90
2023-04-17T06:58:48.162Z,99.90
2023-04-17T07:01:15.014Z,99.90
2023-04-17T07:03:42.308Z,99.90
2023-04-17T07:06:09.440Z,99.90
2023-04-17T07:08:36.083Z,99.90
2023-04-17T07:11:02.676Z,99.90
2023-04-17T07:13:31.671Z,99.90
2023-04-17T07:15:59.327Z,99.90
2023-04-17T07:18:26.990Z,99.90
2023-04-17T07:20:53.699Z,99.90
2023-04-17T07:23:20.534Z,99.90
2023-04-17T07:25:47.275Z,99.90
2023-04-17T07:28:14.469Z,99.90
2023-04-17T07:30:42.641Z,99.90
2023-04-17T07:33:09.634Z,99.90
2023-04-17T07:35:36.279Z,99.90
2023-04-17T07:38:04.230Z,99.90
2023-04-17T07:40:31.496Z,99.90
2023-04-17T07:42:58.218Z,99.90
2023-04-17T07:45:24.859Z,99.90
2023-04-17T07:47:52.365Z,99.90
2023-04-17T07:50:19.110Z,99.90
2023-04-17T07:52:46.416Z,99.90
2023-04-17T07:55:13.211Z,99.90
2023-04-17T07:57:43.175Z,99.90
2023-04-17T08:00:11.375Z,99.90
2023-04-17T08:02:38.957Z,99.90
2023-04-17T08:05:07.130Z,99.90
2023-04-17T08:07:33.893Z,99.90
2023-04-17T08:10:00.757Z,99.90
2023-04-17T08:12:27.483Z,99.90
2023-04-17T08:14:54.018Z,99.90
2023-04-17T08:17:23.271Z,99.90
2023-04-17T08:19:50.872Z,99.90
2023-04-17T08:22:19.695Z,99.90
2023-04-17T08:24:46.917Z,99.90
2023-04-17T08:27:15.035Z,99.90
2023-04-17T08:29:42.152Z,99.90
2023-04-17T08:32:14.568Z,99.90
2023-04-17T08:34:44.316Z,99.90
2023-04-17T08:37:11.172Z,99.90
2023-04-17T08:39:38.008Z,99.90
2023-04-17T08:42:10.779Z,99.90
2023-04-17T08:44:39.892Z,99.90
2023-04-17T08:47:09.001Z,99.90
2023-04-17T08:49:36.044Z,99.90
2023-04-17T08:52:04.445Z,99.90
2023-04-17T08:54:33.285Z,99.90
2023-04-17T08:57:05.255Z,99.90
2023-04-17T08:59:33.268Z,99.90
2023-04-17T09:02:09.226Z,99.90
2023-04-17T09:04:40.550Z,99.90
2023-04-17T09:07:08.515Z,99.90
2023-04-17T09:09:55.018Z,99.90
2023-04-17T09:12:22.659Z,99.90
2023-04-17T09:14:49.280Z,99.90
2023-04-17T09:17:19.888Z,99.90
2023-04-17T09:20:04.089Z,99.90
2023-04-17T09:22:31.148Z,99.90
2023-04-17T09:24:57.956Z,99.90
2023-04-17T09:27:25.233Z,99.90
2023-04-17T09:30:10.231Z,99.90
2023-04-17T09:32:36.956Z,99.90
2023-04-17T09:35:04.719Z,99.90
2023-04-17T09:37:48.729Z,99.90
2023-04-17T09:40:15.717Z,99.90
2023-04-17T09:42:53.398Z,99.90
2023-04-17T09:45:20.542Z,99.90
2023-04-17T09:47:47.547Z,99.90
2023-04-17T09:50:18.205Z,99.90
2023-04-17T09:52:46.985Z,99.90
2023-04-17T09:55:14.803Z,99.90
2023-04-17T09:57:44.712Z,99.90
2023-04-17T10:00:14.760Z,99.90
2023-04-17T10:02:42.213Z,99.90
2023-04-17T10:05:10.601Z,99.90
2023-04-17T10:07:37.783Z,99.90
2023-04-17T10:10:09.198Z,99.90
2023-04-17T10:12:39.364Z,99.90
2023-04-17T10:15:07.095Z,96.30
2023-04-17T10:17:36.836Z,93.10
2023-04-17T10:20:17.617Z,84.90
2023-04-17T10:22:45.071Z,85.50
2023-04-17T10:25:12.594Z,85.10
2023-04-17T10:27:40.257Z,87.30
2023-04-17T10:30:10.369Z,89.80
2023-04-17T10:32:37.084Z,81.60
2023-04-17T10:35:16.236Z,79.20
2023-04-17T10:37:52.047Z,82.80
2023-04-17T10:40:22.165Z,89.50
2023-04-17T10:43:07.612Z,91.90
2023-04-17T10:45:54.069Z,92.50
2023-04-17T10:48:25.152Z,94.30
2023-04-17T10:50:52.024Z,95.60
2023-04-17T10:53:38.086Z,94.40
2023-04-17T10:56:05.003Z,93.30
2023-04-17T10:58:32.381Z,90.50
2023-04-17T11:01:02.429Z,90.20
2023-04-17T11:03:30.372Z,87.30
2023-04-17T11:06:00.468Z,86.80
2023-04-17T11:08:27.404Z,87.00
2023-04-17T11:11:02.112Z,90.00
2023-04-17T11:13:34.759Z,90.90
2023-04-17T11:16:03.291Z,91.40
2023-04-17T11:18:29.959Z,91.20
2023-04-17T11:20:57.218Z,90.10
2023-04-17T11:23:24.129Z,83.60
2023-04-17T11:25:50.820Z,80.90
2023-04-17T11:28:17.608Z,80.60
2023-04-17T11:30:45.156Z,81.50
2023-04-17T11:33:15.999Z,83.90
2023-04-17T11:35:44.878Z,86.40
2023-04-17T11:38:11.630Z,89.00
2023-04-17T11:40:42.776Z,80.80
2023-04-17T11:43:09.993Z,78.70
2023-04-17T11:45:37.166Z,79.10
2023-04-17T11:48:04.475Z,79.00
2023-04-17T11:50:32.109Z,83.30
2023-04-17T11:53:02.644Z,82.30
2023-04-17T11:55:33.347Z,82.60
2023-04-17T11:58:05.525Z,82.20
2023-04-17T12:00:38.334Z,83.20
2023-04-17T12:03:24.658Z,85.80
2023-04-17T12:06:00.051Z,87.00
2023-04-17T12:08:28.695Z,89.60
2023-04-17T12:11:02.188Z,88.90
2023-04-17T12:13:32.747Z,86.70
2023-04-17T12:15:59.469Z,88.20
2023-04-17T12:18:26.321Z,82.60
2023-04-17T12:20:53.178Z,83.10
2023-04-17T12:23:19.961Z,82.80
2023-04-17T12:25:49.410Z,85.50
2023-04-17T12:28:17.373Z,87.90
2023-04-17T12:30:44.110Z,87.40
2023-04-17T12:33:10.978Z,88.00
2023-04-17T12:35:38.291Z,88.30
2023-04-17T12:38:05.129Z,88.10
2023-04-17T12:40:32.938Z,86.60
2023-04-17T12:42:59.683Z,85.80
2023-04-17T12:45:26.648Z,84.40
2023-04-17T12:47:57.220Z,88.40
2023-04-17T12:50:24.214Z,87.30
2023-04-17T12:52:51.106Z,88.90
2023-04-17T12:55:21.517Z,88.00
2023-04-17T12:57:48.249Z,88.20
2023-04-17T13:00:15.386Z,89.10
2023-04-17T13:02:42.396Z,89.30
2023-04-17T13:05:09.144Z,88.20
2023-04-17T13:07:35.744Z,88.20
2023-04-17T13:10:02.390Z,87.30
2023-04-17T13:12:28.994Z,83.60
2023-04-17T13:14:57.404Z,80.30
2023-04-17T13:17:24.454Z,79.60
2023-04-17T13:19:51.070Z,77.50
2023-04-17T13:22:17.892Z,78.00
2023-04-17T13:24:44.533Z,79.40
2023-04-17T13:27:11.146Z,80.90
2023-04-17T13:29:37.706Z,82.40
2023-04-17T13:32:04.378Z,84.90
2023-04-17T13:34:38.783Z,86.30
2023-04-17T13:37:13.720Z,85.30
2023-04-17T13:39:40.882Z,84.70
2023-04-17T13:42:13.100Z,83.70
2023-04-17T13:44:42.129Z,83.00
2023-04-17T13:47:09.192Z,81.40
2023-04-17T13:49:37.080Z,82.20
2023-04-17T13:52:03.967Z,81.90
2023-04-17T13:54:31.051Z,81.80
2023-04-17T13:56:59.027Z,81.50
2023-04-17T13:59:25.966Z,80.40
2023-04-17T14:01:53.083Z,81.40
2023-04-17T14:04:20.218Z,81.70
2023-04-17T14:06:49.672Z,82.80
2023-04-17T14:09:16.955Z,82.10
2023-04-17T14:11:43.768Z,80.80
2023-04-17T14:14:12.680Z,80.60
2023-04-17T14:16:43.298Z,81.20
2023-04-17T14:19:13.870Z,79.50
2023-04-17T14:21:41.496Z,77.20
2023-04-17T14:24:10.632Z,73.00
2023-04-17T14:26:37.810Z,73.60
2023-04-17T14:29:07.637Z,71.50
2023-04-17T14:31:34.553Z,71.60
2023-04-17T14:34:01.418Z,73.40
2023-04-17T14:36:28.302Z,74.30
2023-04-17T14:38:55.323Z,74.10
2023-04-17T14:41:22.224Z,76.20
2023-04-17T14:43:51.574Z,77.50
2023-04-17T14:46:18.398Z,76.60
2023-04-17T14:48:55.004Z,77.10
2023-04-17T14:51:23.444Z,78.00
2023-04-17T14:53:51.285Z,78.50
2023-04-17T14:56:18.201Z,77.50
2023-04-17T14:58:45.182Z,78.10
2023-04-17T15:01:11.964Z,78.70
2023-04-17T15:03:38.993Z,78.60
2023-04-17T15:06:05.909Z,81.40
2023-04-17T15:08:32.500Z,81.60
2023-04-17T15:10:59.149Z,83.10
2023-04-17T15:13:26.022Z,86.30
2023-04-17T15:15:52.681Z,88.10
2023-04-17T15:18:19.394Z,88.80
2023-04-17T15:20:46.252Z,89.00
2023-04-17T15:23:13.047Z,88.50
2023-04-17T15:25:39.898Z,88.90
2023-04-17T15:28:06.989Z,89.90
2023-04-17T15:30:33.570Z,86.90
2023-04-17T15:33:00.288Z,87.00
2023-04-17T15:35:27.069Z,86.10
2023-04-17T15:37:53.717Z,86.50
2023-04-17T15:40:20.936Z,86.10
2023-04-17T15:42:47.714Z,85.90
2023-04-17T15:45:16.910Z,87.40
2023-04-17T15:47:43.627Z,87.60
2023-04-17T15:50:10.462Z,88.20
2023-04-17T15:52:37.099Z,87.20
2023-04-17T15:55:04.132Z,87.10
2023-04-17T15:57:30.792Z,86.80
2023-04-17T15:59:57.429Z,86.30
2023-04-17T16:02:24.180Z,85.90
2023-04-17T16:04:50.867Z,83.80
2023-04-17T16:07:17.470Z,82.40
2023-04-17T16:09:48.008Z,79.20
2023-04-17T16:12:14.581Z,78.60
2023-04-17T16:14:41.126Z,79.80
2023-04-17T16:17:07.737Z,80.50
2023-04-17T16:19:35.316Z,80.90
2023-04-17T16:22:02.116Z,81.60
2023-04-17T16:24:28.701Z,84.20
2023-04-17T16:26:59.029Z,83.40
2023-04-17T16:29:25.845Z,84.00
2023-04-17T16:31:53.270Z,84.30
2023-04-17T16:34:20.818Z,85.10
2023-04-17T16:36:48.063Z,84.90
2023-04-17T16:41:57.743Z,84.10
2023-04-17T16:44:27.490Z,84.10
2023-04-17T16:52:22.909Z,83.10
2023-04-17T16:54:49.586Z,84.20
2023-04-17T16:57:16.182Z,83.90
2023-04-17T16:59:42.785Z,84.70
2023-04-17T17:02:09.482Z,85.20
2023-04-17T17:04:36.162Z,84.90
2023-04-17T17:07:02.865Z,85.30
2023-04-17T17:09:29.483Z,86.10
2023-04-17T17:11:56.784Z,85.60
2023-04-17T17:14:23.324Z,85.70
2023-04-17T17:16:49.944Z,86.10
2023-04-17T17:19:16.675Z,84.10
2023-04-17T17:21:43.220Z,84.40
2023-04-17T17:24:09.728Z,83.70
2023-04-17T17:26:36.846Z,82.30
2023-04-17T17:29:03.670Z,82.90
2023-04-17T17:31:30.284Z,82.60
2023-04-17T17:33:57.712Z,83.10
2023-04-17T17:36:24.547Z,82.60
2023-04-17T17:38:55.951Z,82.70
2023-04-17T17:41:26.287Z,83.30
2023-04-17T17:43:55.979Z,83.10
2023-04-17T17:46:24.132Z,83.20
2023-04-17T17:48:50.952Z,83.60
2023-04-17T17:51:17.601Z,83.80
2023-04-17T17:53:44.178Z,83.10
2023-04-17T17:56:10.930Z,84.00
2023-04-17T17:58:37.579Z,84.00
2023-04-17T18:01:04.262Z,83.70
2023-04-17T18:03:31.080Z,84.10
2023-04-17T18:05:57.890Z,84.20
2023-04-17T18:08:24.481Z,84.40
2023-04-17T18:10:51.052Z,85.00
2023-04-17T18:13:17.755Z,85.20
2023-04-17T18:15:44.489Z,86.10
2023-04-17T18:18:11.176Z,85.30
2023-04-17T18:20:39.091Z,86.60
2023-04-17T18:23:06.099Z,87.30
2023-04-17T18:25:35.209Z,87.30
2023-04-17T18:28:03.001Z,87.20
2023-04-17T18:30:34.710Z,88.30
2023-04-17T18:33:02.412Z,88.50
2023-04-17T18:35:29.172Z,89.40
2023-04-17T18:37:56.477Z,90.10
2023-04-17T18:40:23.148Z,90.20
2023-04-17T18:42:49.895Z,90.20
2023-04-17T18:45:16.527Z,90.10
2023-04-17T18:47:43.289Z,90.20
2023-04-17T18:50:11.066Z,90.70
2023-04-17T18:52:38.840Z,90.70
2023-04-17T18:55:06.034Z,90.80
2023-04-17T18:57:32.750Z,91.00
2023-04-17T18:59:59.396Z,91.20
2023-04-17T19:02:26.117Z,91.50
2023-04-17T19:04:53.928Z,92.00
2023-04-17T19:07:22.267Z,91.70
2023-04-17T19:09:48.933Z,92.00
2023-04-17T19:12:15.788Z,92.10
2023-04-17T19:14:42.572Z,92.90
2023-04-17T19:17:09.255Z,93.30
2023-04-17T19:19:36.133Z,93.60
2023-04-17T19:22:02.791Z,93.80
2023-04-17T19:24:29.720Z,94.50
2023-04-17T19:26:57.699Z,94.60
2023-04-17T19:29:24.417Z,94.70
2023-04-17T19:31:51.059Z,95.30
2023-04-17T19:34:20.367Z,95.20
2023-04-17T19:36:48.320Z,95.00
2023-04-17T19:39:20.012Z,95.10
2023-04-17T19:41:51.072Z,95.10
2023-04-17T19:44:18.868Z,95.10
2023-04-17T19:46:45.678Z,95.30
2023-04-17T19:49:13.096Z,95.60
2023-04-17T19:51:40.009Z,95.50
2023-04-17T19:54:06.866Z,95.40
2023-04-17T19:56:33.637Z,95.20
2023-04-17T19:59:04.063Z,95.30
2023-04-17T20:01:31.215Z,94.90
2023-04-17T20:03:59.273Z,95.00
2023-04-17T20:06:26.812Z,95.00
2023-04-17T20:08:53.874Z,95.10
2023-04-17T20:11:20.546Z,95.30
2023-04-17T20:13:47.142Z,96.20
2023-04-17T20:16:13.901Z,96.80
2023-04-17T20:18:41.722Z,97.10
2023-04-17T20:21:08.407Z,97.30
2023-04-17T20:23:35.283Z,97.90
2023-04-17T20:26:03.321Z,97.20
2023-04-17T20:28:30.200Z,97.90
2023-04-17T20:30:56.878Z,97.90
2023-04-17T20:33:23.674Z,98.40
2023-04-17T20:35:50.544Z,97.90
2023-04-17T20:38:17.497Z,99.30
2023-04-17T20:40:44.347Z,99.80
2023-04-17T20:43:11.075Z,99.80
2023-04-17T20:45:37.670Z,99.90
2023-04-17T20:48:04.494Z,99.90
2023-04-17T20:50:31.221Z,99.90
2023-04-17T20:52:58.028Z,99.90
2023-04-17T20:55:24.770Z,99.90
2023-04-17T20:57:51.409Z,99.90
2023-04-17T21:00:18.256Z,99.90
2023-04-17T21:02:45.145Z,99.90
2023-04-17T21:05:12.140Z,99.90
2023-04-17T21:07:38.873Z,99.90
2023-04-17T21:10:05.858Z,99.90
2023-04-17T21:12:35.483Z,99.90
2023-04-17T21:15:04.947Z,99.90
2023-04-17T21:17:31.585Z,99.90
2023-04-17T21:19:58.315Z,99.90
2023-04-17T21:22:25.146Z,99.90
2023-04-17T21:24:51.947Z,99.90
2023-04-17T21:27:18.624Z,99.90
2023-04-17T21:29:45.367Z,99.90
2023-04-17T21:32:12.039Z,99.90
2023-04-17T21:34:38.639Z,99.90
2023-04-17T21:37:05.485Z,99.90
2023-04-17T21:39:38.379Z,99.90
2023-04-17T21:42:05.330Z,99.90
2023-04-17T21:44:32.055Z,99.90
2023-04-17T21:46:58.756Z,99.90
2023-04-17T21:49:25.479Z,99.90
2023-04-17T21:51:52.102Z,99.90
2023-04-17T21:54:18.801Z,99.90
2023-04-17T21:56:45.467Z,99.90
2023-04-17T21:59:14.248Z,99.90
2023-04-17T22:01:40.938Z,99.90
2023-04-17T22:04:07.669Z,99.90
2023-04-17T22:06:35.668Z,99.90
2023-04-17T22:09:02.523Z,99.90
2023-04-17T22:11:29.201Z,99.90
2023-04-17T22:13:55.867Z,99.90
2023-04-17T22:16:22.585Z,99.90
2023-04-17T22:18:49.385Z,99.90
2023-04-17T22:21:16.118Z,99.90
2023-04-17T22:23:42.766Z,99.90
2023-04-17T22:26:09.504Z,99.90
2023-04-17T22:28:36.349Z,99.90
2023-04-17T22:31:03.206Z,99.90
2023-04-17T22:33:29.916Z,99.90
2023-04-17T22:35:56.560Z,99.90
2023-04-17T22:38:23.333Z,99.90
2023-04-17T22:40:50.023Z,99.90
2023-04-17T22:43:16.801Z,99.90
2023-04-17T22:45:43.611Z,99.90
2023-04-17T22:48:10.232Z,99.90
2023-04-17T22:50:40.769Z,99.90
2023-04-17T22:53:07.520Z,99.90
2023-04-17T22:55:34.253Z,99.90
2023-04-17T22:58:01.769Z,99.90
2023-04-17T23:00:30.580Z,99.90
2023-04-17T23:02:57.594Z,99.90
2023-04-17T23:08:10.206Z,99.90
2023-04-17T23:10:37.011Z,99.90
2023-04-17T23:13:03.701Z,99.90
2023-04-17T23:15:30.395Z,99.90
2023-04-17T23:17:57.218Z,99.90
2023-04-17T23:20:24.965Z,99.90
2023-04-17T23:22:51.831Z,99.90
2023-04-17T23:25:18.758Z,99.90
2023-04-17T23:27:45.460Z,99.90
2023-04-17T23:30:12.398Z,99.90
2023-04-17T23:32:41.546Z,99.90
2023-04-17T23:35:08.556Z,99.90
2023-04-17T23:37:35.770Z,99.90
2023-04-17T23:40:02.554Z,99.90
2023-04-17T23:42:29.212Z,99.90
2023-04-17T23:44:55.920Z,99.90
2023-04-17T23:47:22.719Z,99.90
2023-04-17T23:49:49.484Z,99.90
2023-04-17T23:52:19.686Z,99.90
2023-04-17T23:54:46.452Z,99.90
2023-04-17T23:57:13.231Z,99.90
2023-04-17T23:59:40.056Z,99.90
